Acuna, Argentina
Current Conditions -  °F | °C
As of 11:00 PM on Wednesday 22 Oct 2014 (Local Time) from SARL Reporting Station
Clear Clear  
Wind Chill: 22°   Ceiling: Unl
Heat Index: 22°   Visibility: 6mi
Dew Point: 15°   Wind: 12mph
Humidity: 64%   Direction: 90°E
Pressure: 30"   Gusts: NA
Location:  29.92°S, 57.97°W
Report Text: SARL 230200Z 09010KT CAVOK 22/15 Q1016
Loading
Personal Weather Stations






























Interactive Weather Map
Tropical Storm Tracking
New forecast layout! Learn more

10-Day Weather Forecast

Advertisements
Track Severe Weather on mobile